Time;durP1;ratioP1;P1;durP2;ratioP2;P2;SDS_P1;SDS_P2;PMS_P1;PMS_P2;Temp;Humidity;BMP_temperature;BMP_pressure;BME280_temperature;BME280_humidity;BME280_pressure;Samples;Min_cycle;Max_cycle;Signal;HPM_P1;HPM_P2
2021/10/07 00:01:27;;;;;;;;;;;;;;;-142.75;100.00;77672.78;5086437;28;20335;-86
2021/10/07 00:03:52;;;;;;;;;;;;;;;-142.75;100.00;77666.88;5080666;28;19916;-86
2021/10/07 00:06:18;;;;;;;;;;;;;;;-142.75;100.00;77639.31;5091246;28;20073;-85
2021/10/07 00:08:43;;;;;;;;;;;;;;;-142.75;100.00;77645.22;5087217;28;19916;-85
2021/10/07 00:11:11;;;;;;;;;;;;;;;-142.75;100.00;77649.16;5082370;28;20365;-85
2021/10/07 00:13:37;;;;;;;;;;;;;;;-142.75;100.00;77653.09;5083233;28;20359;-83
2021/10/07 00:16:02;;;;;;;;;;;;;;;-142.75;100.00;77662.94;5086609;28;19916;-85
2021/10/07 00:18:27;;;;;;;;;;;;;;;-142.75;100.00;77682.63;5082301;28;19920;-84
2021/10/07 00:20:53;;;;;;;;;;;;;;;-142.75;100.00;77690.50;5085981;28;20341;-84
2021/10/07 00:23:24;;;;;;;;;;;;;;;-142.75;100.00;77696.41;5083248;28;19961;-85
2021/10/07 00:25:49;;;;;;;;;;;;;;;-142.75;100.00;77696.41;5081541;28;19920;-84
2021/10/07 00:28:14;;;;;;;;;;;;;;;-142.75;100.00;77690.50;5080750;28;19972;-84
2021/10/07 00:30:41;;;;;;;;;;;;;;;-142.75;100.00;77680.66;5085007;28;19916;-85
2021/10/07 00:33:13;;;;;;;;;;;;;;;-142.75;100.00;77670.81;5082637;28;19916;-85
2021/10/07 00:40:48;;;;;;;;;;;;;;;-142.75;100.00;77680.66;5084239;28;19930;-84
2021/10/07 00:43:13;;;;;;;;;;;;;;;-142.75;100.00;77692.47;5082419;28;20276;-83
2021/10/07 00:45:38;;;;;;;;;;;;;;;-142.75;100.00;77688.53;5088228;28;19927;-84
2021/10/07 00:48:03;;;;;;;;;;;;;;;-142.75;100.00;77690.50;5084207;28;19916;-84
2021/10/07 00:50:28;;;;;;;;;;;;;;;-142.75;100.00;77696.41;5084204;28;19924;-83
2021/10/07 00:52:54;;;;;;;;;;;;;;;-142.75;100.00;77686.56;5080294;28;20362;-84
2021/10/07 00:55:19;;;;;;;;;;;;;;;-142.75;100.00;77690.50;5086776;28;20271;-83
2021/10/07 00:57:45;;;;;;;;;;;;;;;-142.75;100.00;77684.59;5076708;28;19916;-83
2021/10/07 01:00:11;;;;;;;;;;;;;;;-142.75;100.00;77700.34;5079665;28;19924;-83
2021/10/07 01:02:36;;;;;;;;;;;;;;;-142.75;100.00;77708.22;5085174;28;19965;-84
2021/10/07 01:05:02;;;;;;;;;;;;;;;-142.75;100.00;77702.31;5087173;28;19920;-82
2021/10/07 01:07:27;;;;;;;;;;;;;;;-142.75;100.00;77708.22;5082503;28;19970;-85
2021/10/07 01:09:53;;;;;;;;;;;;;;;-142.75;100.00;77704.28;5086512;28;19916;-84
2021/10/07 01:12:18;;;;;;;;;;;;;;;-142.75;100.00;77698.38;5086419;28;19916;-84
2021/10/07 01:14:50;;;;;;;;;;;;;;;-142.75;100.00;77704.28;5086090;28;20365;-83
2021/10/07 01:17:16;;;;;;;;;;;;;;;-142.75;100.00;77712.16;5085894;28;19920;-83
2021/10/07 01:19:43;;;;;;;;;;;;;;;-142.75;100.00;77716.09;5086309;28;20343;-82
2021/10/07 01:22:08;;;;;;;;;;;;;;;-142.75;100.00;77700.34;5079219;28;19920;-84
2021/10/07 01:24:34;;;;;;;;;;;;;;;-142.75;100.00;77700.34;5090407;28;20301;-83
2021/10/07 01:26:59;;;;;;;;;;;;;;;-142.75;100.00;77700.34;5080810;28;19965;-84
2021/10/07 01:29:24;;;;;;;;;;;;;;;-142.75;100.00;77704.28;5084070;28;20003;-84
2021/10/07 01:31:49;;;;;;;;;;;;;;;-142.75;100.00;77718.06;5083768;28;19915;-83
2021/10/07 01:34:25;;;;;;;;;;;;;;;-142.75;100.00;77720.03;5085288;28;19916;-83
2021/10/07 01:36:51;;;;;;;;;;;;;;;-142.75;100.00;77718.06;5081849;28;19924;-86
2021/10/07 01:39:16;;;;;;;;;;;;;;;-142.75;100.00;77731.88;5087557;28;19986;-83
2021/10/07 01:41:41;;;;;;;;;;;;;;;-142.75;100.00;77735.81;5083339;28;19916;-84
2021/10/07 01:44:07;;;;;;;;;;;;;;;-142.75;100.00;77725.97;5083015;28;19920;-85
2021/10/07 01:46:32;;;;;;;;;;;;;;;-142.75;100.00;77712.16;5085069;28;19996;-83
2021/10/07 01:48:57;;;;;;;;;;;;;;;-142.75;100.00;77706.25;5084283;28;19920;-82
2021/10/07 01:51:23;;;;;;;;;;;;;;;-142.75;100.00;77706.25;5086816;28;19963;-84
2021/10/07 01:53:48;;;;;;;;;;;;;;;-142.75;100.00;77708.22;5077707;28;19923;-83
2021/10/07 01:56:13;;;;;;;;;;;;;;;-142.75;100.00;77733.84;5082610;28;19916;-83
2021/10/07 01:58:38;;;;;;;;;;;;;;;-142.75;100.00;77745.66;5082576;28;20274;-84
2021/10/07 02:01:03;;;;;;;;;;;;;;;-142.75;100.00;77747.63;5080923;28;19916;-83
2021/10/07 02:03:28;;;;;;;;;;;;;;;-142.75;100.00;77743.69;5103893;22;20305;-79
2021/10/07 02:05:54;;;;;;;;;;;;;;;-142.75;100.00;77737.78;5072100;28;20011;-79
2021/10/07 02:08:19;;;;;;;;;;;;;;;-142.75;100.00;77733.84;5091143;28;19919;-79
2021/10/07 02:10:44;;;;;;;;;;;;;;;-142.75;100.00;77729.88;5092016;28;19920;-80
2021/10/07 02:13:09;;;;;;;;;;;;;;;-142.75;100.00;77737.78;5073249;28;19916;-79
2021/10/07 02:15:35;;;;;;;;;;;;;;;-142.75;100.00;77739.75;5091405;28;19923;-79
2021/10/07 02:18:00;;;;;;;;;;;;;;;-142.75;100.00;77745.66;5092137;28;19946;-79
2021/10/07 02:20:25;;;;;;;;;;;;;;;-142.75;100.00;77735.81;5073463;28;19916;-79
2021/10/07 02:22:50;;;;;;;;;;;;;;;-142.75;100.00;77731.88;5091516;28;19916;-79
2021/10/07 02:25:15;;;;;;;;;;;;;;;-142.75;100.00;77737.78;5091551;28;19920;-79
2021/10/07 02:27:41;;;;;;;;;;;;;;;-142.75;100.00;77741.72;5091388;28;19978;-79
2021/10/07 02:30:07;;;;;;;;;;;;;;;-142.75;100.00;77743.69;5072860;28;19919;-79
2021/10/07 02:32:32;;;;;;;;;;;;;;;-142.75;100.00;77745.66;5073217;28;20030;-79
2021/10/07 02:34:57;;;;;;;;;;;;;;;-142.75;100.00;77735.81;5091952;28;20383;-80
2021/10/07 02:37:23;;;;;;;;;;;;;;;-142.75;100.00;77735.81;5073547;28;19948;-78
2021/10/07 02:39:48;;;;;;;;;;;;;;;-142.75;100.00;77733.84;5091780;28;20014;-79
2021/10/07 02:42:13;;;;;;;;;;;;;;;-142.75;100.00;77743.69;5073412;28;19939;-80
2021/10/07 02:44:38;;;;;;;;;;;;;;;-142.75;100.00;77735.81;5075144;28;20381;-79
2021/10/07 02:47:03;;;;;;;;;;;;;;;-142.75;100.00;77741.72;5076981;28;19920;-79
2021/10/07 02:49:29;;;;;;;;;;;;;;;-142.75;100.00;77739.75;5076876;28;20031;-79
2021/10/07 02:51:54;;;;;;;;;;;;;;;-142.75;100.00;77747.63;5095472;28;19920;-80
2021/10/07 02:54:19;;;;;;;;;;;;;;;-142.75;100.00;77743.69;5076682;28;19916;-80
2021/10/07 02:56:44;;;;;;;;;;;;;;;-142.75;100.00;77749.59;5076693;28;19974;-79
2021/10/07 02:59:09;;;;;;;;;;;;;;;-142.75;100.00;77759.44;5076252;28;19923;-79
2021/10/07 03:01:35;;;;;;;;;;;;;;;-142.75;100.00;77759.44;5076653;28;20308;-79
2021/10/07 03:04:00;;;;;;;;;;;;;;;-142.75;100.00;77769.28;5076152;28;20350;-79
2021/10/07 03:06:25;;;;;;;;;;;;;;;-142.75;100.00;77759.44;5096144;28;19935;-79
2021/10/07 03:08:50;;;;;;;;;;;;;;;-142.75;100.00;77763.38;5094621;28;19916;-79
2021/10/07 03:11:15;;;;;;;;;;;;;;;-142.75;100.00;77755.50;5076315;28;19916;-79
2021/10/07 03:13:41;;;;;;;;;;;;;;;-142.75;100.00;77759.44;5075767;28;19916;-79
2021/10/07 03:16:06;;;;;;;;;;;;;;;-142.75;100.00;77757.47;5076547;28;20048;-78
2021/10/07 03:18:31;;;;;;;;;;;;;;;-142.75;100.00;77753.53;5076498;28;19923;-78
2021/10/07 03:20:56;;;;;;;;;;;;;;;-142.75;100.00;77747.63;5094960;28;19916;-78
2021/10/07 03:23:22;;;;;;;;;;;;;;;-142.75;100.00;77775.19;5094462;28;19920;-79
2021/10/07 03:25:47;;;;;;;;;;;;;;;-142.75;100.00;77783.06;5075900;28;19924;-79
2021/10/07 03:28:12;;;;;;;;;;;;;;;-142.75;100.00;77787.00;5094352;28;19958;-78
2021/10/07 03:30:37;;;;;;;;;;;;;;;-142.75;100.00;77788.97;5094391;28;19927;-78
2021/10/07 03:33:03;;;;;;;;;;;;;;;-142.75;100.00;77794.88;5076125;28;19915;-79
2021/10/07 03:35:28;;;;;;;;;;;;;;;-142.75;100.00;77798.81;5094924;28;19923;-79
2021/10/07 03:37:54;;;;;;;;;;;;;;;-142.75;100.00;77798.81;5093828;28;19920;-78
2021/10/07 03:40:19;;;;;;;;;;;;;;;-142.75;100.00;77798.81;5094051;28;20310;-79
2021/10/07 03:42:44;;;;;;;;;;;;;;;-142.75;100.00;77800.78;5075436;28;19920;-79
2021/10/07 03:45:09;;;;;;;;;;;;;;;-142.75;100.00;77798.81;5075345;28;19990;-79
2021/10/07 03:47:34;;;;;;;;;;;;;;;-142.75;100.00;77796.84;5075334;28;19943;-79
2021/10/07 03:50:00;;;;;;;;;;;;;;;-142.75;100.00;77806.69;5075628;28;20421;-79
2021/10/07 03:52:25;;;;;;;;;;;;;;;-142.75;100.00;77806.69;5075355;28;19972;-79
2021/10/07 03:54:51;;;;;;;;;;;;;;;-142.75;100.00;77814.56;5074998;28;19922;-79
2021/10/07 03:57:16;;;;;;;;;;;;;;;-142.75;100.00;77816.53;5093778;28;19920;-79
2021/10/07 03:59:41;;;;;;;;;;;;;;;-142.75;100.00;77826.38;5076410;28;19999;-79
2021/10/07 04:02:06;;;;;;;;;;;;;;;-142.75;100.00;77838.19;5075281;28;19916;-79
2021/10/07 04:04:32;;;;;;;;;;;;;;;-142.75;100.00;77834.25;5093204;28;19932;-78
2021/10/07 04:06:57;;;;;;;;;;;;;;;-142.75;100.00;77850.00;5075828;28;20373;-78
2021/10/07 04:09:22;;;;;;;;;;;;;;;-142.75;100.00;77842.13;5075296;28;19920;-79
2021/10/07 04:11:47;;;;;;;;;;;;;;;-142.75;100.00;77838.19;5075725;28;19916;-79
2021/10/07 04:14:13;;;;;;;;;;;;;;;-142.75;100.00;77834.25;5093384;28;19923;-80
2021/10/07 04:16:38;;;;;;;;;;;;;;;-142.75;100.00;77834.25;5092888;28;19916;-77
2021/10/07 04:19:03;;;;;;;;;;;;;;;-142.75;100.00;77846.06;5093272;28;19916;-79
2021/10/07 04:21:29;;;;;;;;;;;;;;;-142.75;100.00;77850.00;5074708;28;19916;-79
2021/10/07 04:23:54;;;;;;;;;;;;;;;-142.75;100.00;77834.25;5074558;28;19916;-80
2021/10/07 04:26:19;;;;;;;;;;;;;;;-142.75;100.00;77832.28;5093124;28;19927;-79
2021/10/07 04:28:44;;;;;;;;;;;;;;;-142.75;100.00;77834.25;5074608;28;19920;-79
2021/10/07 04:31:09;;;;;;;;;;;;;;;-142.75;100.00;77830.31;5074477;28;19942;-79
2021/10/07 04:33:34;;;;;;;;;;;;;;;-142.75;100.00;77822.44;5074415;28;19919;-78
2021/10/07 04:36:00;;;;;;;;;;;;;;;-142.75;100.00;77830.31;5074711;28;19920;-79
2021/10/07 04:38:25;;;;;;;;;;;;;;;-142.75;100.00;77834.25;5074869;28;19959;-78
2021/10/07 04:40:50;;;;;;;;;;;;;;;-142.75;100.00;77844.09;5092035;28;19916;-78
2021/10/07 04:43:15;;;;;;;;;;;;;;;-142.75;100.00;77834.25;5074322;28;19916;-78
2021/10/07 04:45:40;;;;;;;;;;;;;;;-142.75;100.00;77830.31;5074212;28;20398;-79
2021/10/07 04:48:06;;;;;;;;;;;;;;;-142.75;100.00;77842.13;5074220;28;19920;-79
2021/10/07 04:50:31;;;;;;;;;;;;;;;-142.75;100.00;77844.09;5075371;28;20347;-80
2021/10/07 04:52:56;;;;;;;;;;;;;;;-142.75;100.00;77853.94;5074980;28;20361;-80
2021/10/07 04:55:21;;;;;;;;;;;;;;;-142.75;100.00;77838.19;5074544;28;19959;-80
2021/10/07 04:57:46;;;;;;;;;;;;;;;-142.75;100.00;77846.06;5092573;28;19916;-78
2021/10/07 05:00:12;;;;;;;;;;;;;;;-142.75;100.00;77853.94;5093081;28;19990;-80
2021/10/07 05:02:38;;;;;;;;;;;;;;;-142.75;100.00;77855.91;5074311;28;19919;-80
2021/10/07 05:05:04;;;;;;;;;;;;;;;-142.75;100.00;77865.75;5074382;28;19916;-79
2021/10/07 05:07:29;;;;;;;;;;;;;;;-142.75;100.00;77865.75;5074242;28;19916;-79
2021/10/07 05:09:54;;;;;;;;;;;;;;;-142.75;100.00;77877.56;5075199;28;19926;-79
2021/10/07 05:12:19;;;;;;;;;;;;;;;-142.75;100.00;77871.66;5092558;28;19916;-79
2021/10/07 05:14:45;;;;;;;;;;;;;;;-142.75;100.00;77875.59;5073702;28;19924;-78
2021/10/07 05:17:10;;;;;;;;;;;;;;;-142.75;100.00;77871.66;5074628;28;19923;-79
2021/10/07 05:19:35;;;;;;;;;;;;;;;-142.75;100.00;77869.69;5092653;28;19923;-79
2021/10/07 05:22:00;;;;;;;;;;;;;;;-142.75;100.00;77869.69;5074274;28;19923;-79
2021/10/07 05:24:25;;;;;;;;;;;;;;;-142.75;100.00;77875.59;5092061;28;20381;-79
2021/10/07 05:26:51;;;;;;;;;;;;;;;-142.75;100.00;77877.56;5092197;28;20449;-79
2021/10/07 05:29:16;;;;;;;;;;;;;;;-142.75;100.00;77891.34;5092397;28;19998;-79
2021/10/07 05:31:41;;;;;;;;;;;;;;;-142.75;100.00;77899.22;5092565;28;19915;-79
2021/10/07 05:34:06;;;;;;;;;;;;;;;-142.75;100.00;77905.13;5092001;28;19979;-79
2021/10/07 05:36:31;;;;;;;;;;;;;;;-142.75;100.00;77905.13;5092659;28;19915;-79
2021/10/07 05:38:57;;;;;;;;;;;;;;;-142.75;100.00;77895.28;5073789;28;19916;-79
2021/10/07 05:41:22;;;;;;;;;;;;;;;-142.75;100.00;77901.19;5073798;28;19916;-79
2021/10/07 05:43:47;;;;;;;;;;;;;;;-142.75;100.00;77903.16;5073602;28;20285;-79
2021/10/07 05:46:12;;;;;;;;;;;;;;;-142.75;100.00;77907.09;5073016;28;19920;-78
2021/10/07 05:48:38;;;;;;;;;;;;;;;-142.75;100.00;77916.97;5072350;28;19920;-79
2021/10/07 05:51:03;;;;;;;;;;;;;;;-142.75;100.00;77909.06;5090381;28;20338;-79
2021/10/07 05:53:28;;;;;;;;;;;;;;;-142.75;100.00;77915.00;5090312;28;19924;-79
2021/10/07 05:55:54;;;;;;;;;;;;;;;-142.75;100.00;77920.91;5072811;28;19985;-79
2021/10/07 05:58:19;;;;;;;;;;;;;;;-142.75;100.00;77915.00;5073301;28;20369;-79
2021/10/07 06:00:44;;;;;;;;;;;;;;;-142.75;100.00;77909.06;5091809;28;19932;-79
2021/10/07 06:03:10;;;;;;;;;;;;;;;-142.75;100.00;77918.94;5073588;28;20755;-79
2021/10/07 06:05:36;;;;;;;;;;;;;;;-142.75;100.00;77909.06;5092466;28;19965;-79
2021/10/07 06:08:01;;;;;;;;;;;;;;;-142.75;100.00;77924.84;5092329;28;19920;-79
2021/10/07 06:10:26;;;;;;;;;;;;;;;-142.75;100.00;77920.91;5091378;28;19999;-80
2021/10/07 06:12:52;;;;;;;;;;;;;;;-142.75;100.00;77928.78;5090829;28;19942;-79
2021/10/07 06:15:17;;;;;;;;;;;;;;;-142.75;100.00;77938.63;5087697;28;19978;-79
2021/10/07 06:17:42;;;;;;;;;;;;;;;-142.75;100.00;77952.41;5091209;28;19917;-79
2021/10/07 06:23:05;;;;;;;;;;;;;;;-142.75;100.00;77966.19;5077086;28;19969;-79
2021/10/07 06:25:31;;;;;;;;;;;;;;;-142.75;100.00;77964.22;5093870;28;19924;-79
2021/10/07 06:27:57;;;;;;;;;;;;;;;-142.75;100.00;77964.22;5076312;28;20460;-79
2021/10/07 06:30:22;;;;;;;;;;;;;;;-142.75;100.00;77968.16;5094560;28;19935;-79
2021/10/07 06:32:49;;;;;;;;;;;;;;;-142.75;100.00;77966.19;5076391;28;19922;-79
2021/10/07 06:35:14;;;;;;;;;;;;;;;-142.75;100.00;77956.34;5094077;28;19974;-79
2021/10/07 06:37:39;;;;;;;;;;;;;;;-142.75;100.00;77956.34;5076568;28;19928;-79
2021/10/07 06:40:05;;;;;;;;;;;;;;;-142.75;100.00;77944.53;5075831;28;20037;-78
2021/10/07 06:42:31;;;;;;;;;;;;;;;-142.75;100.00;77938.63;5076185;28;19941;-78
2021/10/07 06:44:56;;;;;;;;;;;;;;;-142.75;100.00;77907.09;5075852;28;19916;-79
2021/10/07 06:47:21;;;;;;;;;;;;;;;-142.75;100.00;77879.53;5076403;28;19935;-79
2021/10/07 06:49:46;;;;;;;;;;;;;;;-142.75;100.00;77869.69;5092693;28;19919;-79
2021/10/07 06:52:12;;;;;;;;;;;;;;;-142.75;100.00;77842.13;5074601;28;19916;-79
2021/10/07 06:54:37;;;;;;;;;;;;;;;-142.75;100.00;77828.34;5092359;28;19920;-79
2021/10/07 06:57:02;;;;;;;;;;;;;;;-142.75;100.00;77806.69;5092422;28;19963;-79
2021/10/07 06:59:27;;;;;;;;;;;;;;;-142.75;100.00;77790.94;5092484;28;20014;-78
2021/10/07 07:01:53;;;;;;;;;;;;;;;-142.75;100.00;77763.38;5093203;28;20393;-79
2021/10/07 07:04:18;;;;;;;;;;;;;;;-142.75;100.00;77727.94;5074485;28;19916;-78
2021/10/07 07:06:45;;;;;;;;;;;;;;;-142.75;100.00;77662.94;5075805;28;20408;-79
2021/10/07 07:09:10;;;;;;;;;;;;;;;-142.75;100.00;77601.91;5074535;28;19916;-79
2021/10/07 07:11:35;;;;;;;;;;;;;;;-142.75;100.00;77527.09;5093524;28;19916;-79
2021/10/07 07:14:02;;;;;;;;;;;;;;;-142.75;100.00;77458.16;5093049;28;19916;-80
2021/10/07 07:16:27;;;;;;;;;;;;;;;-142.75;100.00;77369.56;5074793;28;19943;-79
2021/10/07 07:18:53;;;;;;;;;;;;;;;-142.75;100.00;77342.00;5075348;28;19916;-80
2021/10/07 07:21:19;;;;;;;;;;;;;;;-142.75;100.00;77269.16;5074773;28;19920;-80
2021/10/07 07:23:46;;;;;;;;;;;;;;;-142.75;97.91;77229.78;5092497;28;20302;-79
2021/10/07 07:26:11;;;;;;;;;;;;;;;-142.75;95.25;77162.84;5075487;28;19924;-80
2021/10/07 07:28:36;;;;;;;;;;;;;;;-142.75;91.58;77153.00;5075496;28;20293;-80
2021/10/07 07:31:02;;;;;;;;;;;;;;;-142.75;87.28;77180.56;5074227;28;20313;-80
2021/10/07 07:33:28;;;;;;;;;;;;;;;-142.75;87.38;77261.28;5093035;28;19919;-79
2021/10/07 07:35:53;;;;;;;;;;;;;;;-142.75;91.25;77353.81;5093608;28;19916;-80
2021/10/07 07:38:18;;;;;;;;;;;;;;;-142.75;97.61;77432.56;5074872;28;19916;-79
2021/10/07 07:40:43;;;;;;;;;;;;;;;-142.75;100.00;77468.03;5075025;28;20381;-79
2021/10/07 07:43:09;;;;;;;;;;;;;;;-142.75;100.00;77511.34;5093192;28;19916;-79
2021/10/07 07:45:34;;;;;;;;;;;;;;;-142.75;100.00;77529.06;5074749;28;20297;-80
2021/10/07 07:47:59;;;;;;;;;;;;;;;-142.75;100.00;77542.84;5074332;28;19923;-79
2021/10/07 07:50:25;;;;;;;;;;;;;;;-142.75;100.00;77562.53;5074211;28;19924;-79
2021/10/07 07:52:51;;;;;;;;;;;;;;;-142.75;100.00;77570.41;5073954;28;19932;-78
2021/10/07 07:55:17;;;;;;;;;;;;;;;-142.75;100.00;77562.53;5073390;28;19920;-79
2021/10/07 07:57:42;;;;;;;;;;;;;;;-142.75;100.00;77572.38;5092242;28;20334;-79
2021/10/07 08:00:08;;;;;;;;;;;;;;;-142.75;100.00;77580.25;5073814;28;19916;-80
2021/10/07 08:02:33;;;;;;;;;;;;;;;-142.75;100.00;77603.88;5091794;28;19924;-79
2021/10/07 08:04:58;;;;;;;;;;;;;;;-142.75;100.00;77597.97;5090991;28;20395;-79
2021/10/07 08:07:23;;;;;;;;;;;;;;;-142.75;100.00;77594.03;5092472;28;19931;-79
2021/10/07 08:09:48;;;;;;;;;;;;;;;-142.75;100.00;77590.09;5084991;28;19970;-80
2021/10/07 08:12:14;;;;;;;;;;;;;;;-142.75;100.00;77590.09;5091269;28;19923;-79
2021/10/07 08:14:41;;;;;;;;;;;;;;;-142.75;100.00;77597.97;5072625;28;19923;-79
2021/10/07 08:17:06;;;;;;;;;;;;;;;-142.75;100.00;77582.22;5072966;28;19923;-80
2021/10/07 08:19:31;;;;;;;;;;;;;;;-142.75;100.00;77584.19;5091305;28;19915;-79
2021/10/07 08:21:57;;;;;;;;;;;;;;;-142.75;100.00;77582.22;5091583;28;19916;-80
2021/10/07 08:24:23;;;;;;;;;;;;;;;-142.75;100.00;77578.28;5072669;28;19949;-79
2021/10/07 08:26:48;;;;;;;;;;;;;;;-142.75;100.00;77590.09;5067514;28;19920;-80
2021/10/07 08:29:13;;;;;;;;;;;;;;;-142.75;100.00;77601.91;5090895;28;19920;-79
2021/10/07 08:31:39;;;;;;;;;;;;;;;-142.75;100.00;77594.03;5072396;28;19923;-79
2021/10/07 08:34:04;;;;;;;;;;;;;;;-142.75;100.00;77592.06;5072238;28;19916;-80
2021/10/07 08:36:32;;;;;;;;;;;;;;;-142.75;100.00;77596.00;5073518;28;20298;-79
2021/10/07 08:38:57;;;;;;;;;;;;;;;-142.75;100.00;77597.97;5072769;28;20011;-80
2021/10/07 08:41:22;;;;;;;;;;;;;;;-142.75;100.00;77592.06;5072764;28;20429;-79
2021/10/07 08:43:51;;;;;;;;;;;;;;;-142.75;100.00;77594.03;5072241;28;19916;-79
2021/10/07 08:46:18;;;;;;;;;;;;;;;-142.75;100.00;77599.94;5072551;28;19960;-80
2021/10/07 08:48:43;;;;;;;;;;;;;;;-142.75;100.00;77603.88;5072089;28;19916;-79
2021/10/07 08:51:09;;;;;;;;;;;;;;;-142.75;100.00;77580.25;5072500;28;20545;-79
2021/10/07 08:53:34;;;;;;;;;;;;;;;-142.75;100.00;77584.19;5090809;28;19940;-79
2021/10/07 08:56:01;;;;;;;;;;;;;;;-142.75;100.00;77574.34;5091134;28;20342;-79
2021/10/07 08:58:26;;;;;;;;;;;;;;;-142.75;100.00;77578.28;5090762;28;19915;-79
2021/10/07 09:00:51;;;;;;;;;;;;;;;-142.75;100.00;77564.50;5090999;28;20392;-79
2021/10/07 09:03:20;;;;;;;;;;;;;;;-142.75;100.00;77546.78;5090181;28;19916;-79
2021/10/07 09:05:46;;;;;;;;;;;;;;;-142.75;100.00;77499.53;5072279;28;20006;-79
2021/10/07 09:08:12;;;;;;;;;;;;;;;-142.75;100.00;77464.09;5072136;28;20020;-80
2021/10/07 09:10:40;;;;;;;;;;;;;;;-142.75;100.00;77420.75;5072672;28;20396;-78
2021/10/07 09:13:27;;;;;;;;;;;;;;;-142.75;100.00;77349.88;5090674;28;19948;-78
2021/10/07 09:15:56;;;;;;;;;;;;;;;-142.75;100.00;77298.69;5071556;28;20289;-79
2021/10/07 09:18:22;;;;;;;;;;;;;;;-142.75;100.00;77279.00;5072650;28;19957;-80
2021/10/07 09:20:48;;;;;;;;;;;;;;;-142.75;96.69;77292.78;5072722;28;19969;-79
2021/10/07 09:23:18;;;;;;;;;;;;;;;-142.75;97.44;77259.31;5072370;28;19923;-79
2021/10/07 09:25:57;;;;;;;;;;;;;;;-142.75;97.71;77243.56;5072053;28;19920;-79
2021/10/07 09:28:23;;;;;;;;;;;;;;;-142.75;91.61;77263.25;5072442;28;20006;-79
2021/10/07 09:30:56;;;;;;;;;;;;;;;-142.75;84.91;77322.31;5090566;28;20450;-79
2021/10/07 09:33:25;;;;;;;;;;;;;;;-142.75;90.79;77416.81;5072062;28;19919;-79
2021/10/07 09:36:07;;;;;;;;;;;;;;;-142.75;98.29;77436.50;5090631;28;19996;-80
2021/10/07 09:38:35;;;;;;;;;;;;;;;-142.75;95.93;77466.03;5072102;28;19920;-79
2021/10/07 09:41:14;;;;;;;;;;;;;;;-142.75;98.85;77501.50;5071666;28;19934;-80
2021/10/07 09:43:40;;;;;;;;;;;;;;;-142.75;100.00;77477.88;5071925;28;19959;-79
2021/10/07 09:46:05;;;;;;;;;;;;;;;-142.75;100.00;77436.50;5073370;28;20664;-79
2021/10/07 09:48:36;;;;;;;;;;;;;;;-142.75;98.66;77416.81;5073315;28;19916;-80
2021/10/07 09:51:10;;;;;;;;;;;;;;;-142.75;100.00;77261.28;5072395;28;19966;-79
2021/10/07 09:53:36;;;;;;;;;;;;;;;-142.75;98.70;77172.69;5089945;28;19916;-79
2021/10/07 09:56:01;;;;;;;;;;;;;;;-142.75;93.01;77135.28;5091901;28;20282;-79
2021/10/07 09:58:26;;;;;;;;;;;;;;;-142.75;96.55;76969.91;5092206;28;19927;-79
2021/10/07 10:00:54;;;;;;;;;;;;;;;-142.75;87.59;76826.19;5092336;28;19934;-80
2021/10/07 10:03:21;;;;;;;;;;;;;;;-142.75;80.06;76676.59;5069451;28;19939;-80
2021/10/07 10:05:47;;;;;;;;;;;;;;;-142.75;72.76;76503.38;5091477;28;19999;-79
2021/10/07 10:08:13;;;;;;;;;;;;;;;-142.75;68.40;76446.28;5091298;28;20437;-80
2021/10/07 10:10:40;;;;;;;;;;;;;;;-142.75;60.14;76452.19;5083634;22;19932;-83
2021/10/07 10:13:05;;;;;;;;;;;;;;;-142.75;56.66;76576.19;5051752;28;19931;-83
2021/10/07 10:15:32;;;;;;;;;;;;;;;-142.75;62.10;76487.63;5053724;28;19917;-85
2021/10/07 10:17:57;;;;;;;;;;;;;;;-142.75;61.92;76341.97;5054555;28;20322;-86
2021/10/07 10:20:26;;;;;;;;;;;;;;;-142.75;56.40;76359.66;5052717;28;19923;-84
2021/10/07 10:22:54;;;;;;;;;;;;;;;-142.75;54.53;76391.16;5054454;28;19947;-83
2021/10/07 10:25:20;;;;;;;;;;;;;;;-142.75;59.35;76310.47;5056115;28;19927;-85
2021/10/07 10:27:46;;;;;;;;;;;;;;;-142.75;56.73;76353.78;5056634;28;20083;-83
2021/10/07 10:30:18;;;;;;;;;;;;;;;-142.75;57.93;76302.59;5057103;28;20022;-83
2021/10/07 10:32:44;;;;;;;;;;;;;;;-142.75;57.56;76237.63;5052675;28;19917;-83
2021/10/07 10:35:28;;;;;;;;;;;;;;;-142.75;53.16;76284.88;5053530;28;19921;-84
2021/10/07 10:37:57;;;;;;;;;;;;;;;-142.75;51.82;76434.47;5051220;28;20002;-84
2021/10/07 10:40:22;;;;;;;;;;;;;;;-142.75;57.42;76629.34;5053955;28;19917;-84
2021/10/07 10:42:47;;;;;;;;;;;;;;;-142.75;57.93;76749.44;5053904;28;19924;-84
2021/10/07 10:45:13;;;;;;;;;;;;;;;-142.75;61.95;76847.84;5053010;28;19920;-84
2021/10/07 10:47:42;;;;;;;;;;;;;;;-142.75;65.58;76920.69;5053731;28;19916;-83
2021/10/07 10:50:14;;;;;;;;;;;;;;;-142.75;68.66;76971.88;5050798;28;19966;-84
2021/10/07 10:52:45;;;;;;;;;;;;;;;-142.75;71.33;77030.94;5050790;28;19921;-83
2021/10/07 10:55:18;;;;;;;;;;;;;;;-142.75;72.56;77058.50;5052792;28;19959;-84
2021/10/07 10:57:47;;;;;;;;;;;;;;;-142.75;72.70;77097.88;5050683;28;19917;-85
2021/10/07 11:00:13;;;;;;;;;;;;;;;-142.75;76.40;77160.88;5053642;28;19917;-85
2021/10/07 11:02:40;;;;;;;;;;;;;;;-142.75;76.40;77202.22;5053969;28;19925;-84
2021/10/07 11:05:10;;;;;;;;;;;;;;;-142.75;73.31;77273.09;5052627;28;19924;-82
2021/10/07 11:07:36;;;;;;;;;;;;;;;-142.75;76.98;77377.44;5056707;28;19920;-81
2021/10/07 11:10:01;;;;;;;;;;;;;;;-142.75;81.16;77446.34;5055781;28;20011;-82
2021/10/07 11:12:31;;;;;;;;;;;;;;;-142.75;84.39;77475.91;5057511;28;19917;-81
2021/10/07 11:14:56;;;;;;;;;;;;;;;-142.75;90.75;77538.91;5057480;28;19917;-82
2021/10/07 11:17:22;;;;;;;;;;;;;;;-142.75;91.19;77440.44;5057792;28;19923;-82
2021/10/07 11:19:49;;;;;;;;;;;;;;;-142.75;84.30;77280.97;5058286;28;19920;-82
2021/10/07 11:22:14;;;;;;;;;;;;;;;-142.75;75.34;77168.75;5057787;28;19923;-83
2021/10/07 11:24:50;;;;;;;;;;;;;;;-142.75;71.62;77113.63;5057373;28;19924;-81
2021/10/07 11:27:15;;;;;;;;;;;;;;;-142.75;71.32;77129.38;5054047;28;20017;-83
2021/10/07 11:29:40;;;;;;;;;;;;;;;-142.75;71.38;77176.63;5057194;28;20582;-82
2021/10/07 11:32:06;;;;;;;;;;;;;;;-142.75;73.91;77251.44;5055707;28;20011;-83
2021/10/07 11:34:31;;;;;;;;;;;;;;;-142.75;77.04;77294.75;5055322;28;19925;-84
2021/10/07 11:36:56;;;;;;;;;;;;;;;-142.75;78.85;77338.06;5054668;28;19955;-83
2021/10/07 11:39:21;;;;;;;;;;;;;;;-142.75;78.71;77357.75;5054866;28;19920;-82
2021/10/07 11:41:46;;;;;;;;;;;;;;;-142.75;79.85;77361.69;5055355;28;19916;-81
2021/10/07 11:44:12;;;;;;;;;;;;;;;-142.75;81.14;77385.31;5055900;28;19923;-81
2021/10/07 11:46:37;;;;;;;;;;;;;;;-142.75;83.23;77434.53;5057034;28;19929;-81
2021/10/07 11:49:03;;;;;;;;;;;;;;;-142.75;85.74;77444.38;5055740;28;19917;-83
2021/10/07 11:51:29;;;;;;;;;;;;;;;-142.75;84.77;77438.47;5055080;28;19917;-84
2021/10/07 11:53:55;;;;;;;;;;;;;;;-142.75;82.43;77428.63;5056144;28;20481;-82
2021/10/07 11:56:20;;;;;;;;;;;;;;;-142.75;82.00;77456.22;5054569;28;19920;-83
2021/10/07 11:58:47;;;;;;;;;;;;;;;-142.75;83.84;77456.22;5054312;28;19924;-80
2021/10/07 12:01:13;;;;;;;;;;;;;;;-142.75;84.38;77460.13;5056320;28;19948;-85
2021/10/07 12:03:38;;;;;;;;;;;;;;;-142.75;87.78;77485.75;5055573;28;20298;-82
2021/10/07 12:06:05;;;;;;;;;;;;;;;-142.75;89.73;77475.91;5055826;28;19928;-84
2021/10/07 12:08:32;;;;;;;;;;;;;;;-142.75;89.54;77505.44;5053774;28;19986;-82
2021/10/07 12:10:57;;;;;;;;;;;;;;;-142.75;88.96;77534.97;5050637;28;19923;-81
2021/10/07 12:13:24;;;;;;;;;;;;;;;-142.75;86.74;77536.94;5053917;28;19917;-82
2021/10/07 12:15:54;;;;;;;;;;;;;;;-142.75;86.53;77509.38;5053535;28;19920;-81
2021/10/07 12:18:23;;;;;;;;;;;;;;;-142.75;86.64;77479.84;5050781;28;20008;-81
2021/10/07 12:21:00;;;;;;;;;;;;;;;-142.75;86.40;77448.34;5056519;28;19916;-82
2021/10/07 12:23:25;;;;;;;;;;;;;;;-142.75;84.18;77406.97;5053808;28;19917;-82